Terminal Aerodrome Forecast
Issued by NWS

Home | Current Version | Previous Version | Text Only | Print | Product List | Glossary On
Versions: 1 2 3 4 5 6 7 8 9 10 11 12 13 14
000
FTUS43 KICT 240520
TAFHUT
TAF
KHUT 240520Z 2406/2506 30010KT P6SM SKC WS020/33045KT
     FM241400 32026G39KT P6SM SKC
     FM242200 32015KT P6SM SKC
     FM250100 31008KT P6SM SKC=

USA.gov is the U.S. government's official web portal to all federal, state and local government web resources and services.